sensor_id;sensor_type;location;lat;lon;timestamp;P1;durP1;ratioP1;P2;durP2;ratioP2
16839;SDS011;8536;52.150;11.572;2023-02-15T00:01:44;33.27;;;20.30;;
16839;SDS011;8536;52.150;11.572;2023-02-15T00:04:14;30.20;;;19.67;;
16839;SDS011;8536;52.150;11.572;2023-02-15T00:06:41;30.40;;;19.87;;
16839;SDS011;8536;52.150;11.572;2023-02-15T00:09:08;33.23;;;20.60;;
16839;SDS011;8536;52.150;11.572;2023-02-15T00:11:35;34.10;;;20.53;;
16839;SDS011;8536;52.150;11.572;2023-02-15T00:14:20;30.30;;;21.40;;
16839;SDS011;8536;52.150;11.572;2023-02-15T00:16:48;32.30;;;21.07;;
16839;SDS011;8536;52.150;11.572;2023-02-15T00:19:16;34.33;;;21.57;;
16839;SDS011;8536;52.150;11.572;2023-02-15T00:21:44;34.20;;;20.97;;
16839;SDS011;8536;52.150;11.572;2023-02-15T00:24:13;32.00;;;20.77;;
16839;SDS011;8536;52.150;11.572;2023-02-15T00:26:42;34.07;;;21.47;;
16839;SDS011;8536;52.150;11.572;2023-02-15T00:29:09;34.07;;;21.43;;
16839;SDS011;8536;52.150;11.572;2023-02-15T00:31:36;32.13;;;21.07;;
16839;SDS011;8536;52.150;11.572;2023-02-15T00:34:07;34.47;;;22.07;;
16839;SDS011;8536;52.150;11.572;2023-02-15T00:36:37;32.20;;;20.77;;
16839;SDS011;8536;52.150;11.572;2023-02-15T00:39:04;32.97;;;21.20;;
16839;SDS011;8536;52.150;11.572;2023-02-15T00:41:31;31.13;;;20.63;;
16839;SDS011;8536;52.150;11.572;2023-02-15T00:43:58;32.47;;;20.97;;
16839;SDS011;8536;52.150;11.572;2023-02-15T00:46:25;33.30;;;21.33;;
16839;SDS011;8536;52.150;11.572;2023-02-15T00:48:51;33.00;;;22.47;;
16839;SDS011;8536;52.150;11.572;2023-02-15T00:51:18;33.80;;;21.27;;
16839;SDS011;8536;52.150;11.572;2023-02-15T00:53:46;35.63;;;22.43;;
16839;SDS011;8536;52.150;11.572;2023-02-15T00:56:12;33.27;;;22.20;;
16839;SDS011;8536;52.150;11.572;2023-02-15T00:58:39;32.50;;;20.63;;
16839;SDS011;8536;52.150;11.572;2023-02-15T01:01:19;37.47;;;22.43;;
16839;SDS011;8536;52.150;11.572;2023-02-15T01:03:46;34.37;;;21.13;;
16839;SDS011;8536;52.150;11.572;2023-02-15T01:06:14;32.87;;;22.17;;
16839;SDS011;8536;52.150;11.572;2023-02-15T01:08:41;35.63;;;21.70;;
16839;SDS011;8536;52.150;11.572;2023-02-15T01:11:10;35.13;;;22.77;;
16839;SDS011;8536;52.150;11.572;2023-02-15T01:13:38;35.03;;;20.93;;
16839;SDS011;8536;52.150;11.572;2023-02-15T01:16:05;32.93;;;22.03;;
16839;SDS011;8536;52.150;11.572;2023-02-15T01:18:32;34.67;;;21.23;;
16839;SDS011;8536;52.150;11.572;2023-02-15T01:20:58;35.63;;;22.00;;
16839;SDS011;8536;52.150;11.572;2023-02-15T01:23:25;33.97;;;21.03;;
16839;SDS011;8536;52.150;11.572;2023-02-15T01:25:52;34.97;;;21.70;;
16839;SDS011;8536;52.150;11.572;2023-02-15T01:28:18;35.70;;;21.93;;
16839;SDS011;8536;52.150;11.572;2023-02-15T01:30:45;32.30;;;20.67;;
16839;SDS011;8536;52.150;11.572;2023-02-15T01:33:11;33.93;;;21.60;;
16839;SDS011;8536;52.150;11.572;2023-02-15T01:35:44;34.73;;;21.23;;
16839;SDS011;8536;52.150;11.572;2023-02-15T01:38:12;35.07;;;21.60;;
16839;SDS011;8536;52.150;11.572;2023-02-15T01:40:39;33.07;;;21.33;;
16839;SDS011;8536;52.150;11.572;2023-02-15T01:43:09;35.43;;;20.80;;
16839;SDS011;8536;52.150;11.572;2023-02-15T01:45:38;35.37;;;22.57;;
16839;SDS011;8536;52.150;11.572;2023-02-15T01:48:08;34.97;;;21.83;;
16839;SDS011;8536;52.150;11.572;2023-02-15T01:50:44;34.80;;;21.93;;
16839;SDS011;8536;52.150;11.572;2023-02-15T01:53:14;37.93;;;23.07;;
16839;SDS011;8536;52.150;11.572;2023-02-15T01:55:50;33.30;;;22.07;;
16839;SDS011;8536;52.150;11.572;2023-02-15T01:58:22;35.10;;;22.50;;
16839;SDS011;8536;52.150;11.572;2023-02-15T02:00:50;35.33;;;22.70;;
16839;SDS011;8536;52.150;11.572;2023-02-15T02:03:17;34.20;;;22.40;;
16839;SDS011;8536;52.150;11.572;2023-02-15T02:05:48;37.50;;;23.13;;
16839;SDS011;8536;52.150;11.572;2023-02-15T02:08:14;37.97;;;22.67;;
16839;SDS011;8536;52.150;11.572;2023-02-15T02:10:40;37.50;;;22.57;;
16839;SDS011;8536;52.150;11.572;2023-02-15T02:13:07;38.37;;;22.70;;
16839;SDS011;8536;52.150;11.572;2023-02-15T02:18:10;40.83;;;24.50;;
16839;SDS011;8536;52.150;11.572;2023-02-15T02:23:41;36.07;;;22.77;;
16839;SDS011;8536;52.150;11.572;2023-02-15T02:26:30;34.80;;;21.80;;
16839;SDS011;8536;52.150;11.572;2023-02-15T02:29:26;34.17;;;21.70;;
16839;SDS011;8536;52.150;11.572;2023-02-15T02:35:16;32.33;;;21.43;;
16839;SDS011;8536;52.150;11.572;2023-02-15T02:38:00;35.43;;;22.33;;
16839;SDS011;8536;52.150;11.572;2023-02-15T02:40:36;34.30;;;21.70;;
16839;SDS011;8536;52.150;11.572;2023-02-15T02:43:31;36.67;;;22.87;;
16839;SDS011;8536;52.150;11.572;2023-02-15T02:45:59;38.67;;;24.00;;
16839;SDS011;8536;52.150;11.572;2023-02-15T02:48:30;40.07;;;23.77;;
16839;SDS011;8536;52.150;11.572;2023-02-15T02:50:59;38.30;;;24.23;;
16839;SDS011;8536;52.150;11.572;2023-02-15T02:53:25;37.53;;;24.17;;
16839;SDS011;8536;52.150;11.572;2023-02-15T02:55:56;39.20;;;23.90;;
16839;SDS011;8536;52.150;11.572;2023-02-15T02:58:29;38.37;;;24.07;;
16839;SDS011;8536;52.150;11.572;2023-02-15T03:01:45;41.17;;;23.10;;
16839;SDS011;8536;52.150;11.572;2023-02-15T03:04:03;38.33;;;23.03;;
16839;SDS011;8536;52.150;11.572;2023-02-15T03:06:36;40.50;;;24.40;;
16839;SDS011;8536;52.150;11.572;2023-02-15T03:09:17;37.97;;;23.27;;
16839;SDS011;8536;52.150;11.572;2023-02-15T03:12:00;37.63;;;22.43;;
16839;SDS011;8536;52.150;11.572;2023-02-15T03:14:29;33.77;;;21.83;;
16839;SDS011;8536;52.150;11.572;2023-02-15T03:16:56;39.70;;;23.87;;
16839;SDS011;8536;52.150;11.572;2023-02-15T03:19:24;41.33;;;24.60;;
16839;SDS011;8536;52.150;11.572;2023-02-15T03:22:13;40.23;;;23.90;;
16839;SDS011;8536;52.150;11.572;2023-02-15T03:24:43;40.33;;;24.27;;
16839;SDS011;8536;52.150;11.572;2023-02-15T03:27:13;42.67;;;24.90;;
16839;SDS011;8536;52.150;11.572;2023-02-15T03:29:45;40.03;;;23.37;;
16839;SDS011;8536;52.150;11.572;2023-02-15T03:32:12;37.27;;;23.60;;
16839;SDS011;8536;52.150;11.572;2023-02-15T03:34:42;38.13;;;23.53;;
16839;SDS011;8536;52.150;11.572;2023-02-15T03:37:21;35.77;;;22.27;;
16839;SDS011;8536;52.150;11.572;2023-02-15T03:40:00;38.90;;;23.60;;
16839;SDS011;8536;52.150;11.572;2023-02-15T03:42:51;36.87;;;22.83;;
16839;SDS011;8536;52.150;11.572;2023-02-15T03:45:23;36.40;;;23.00;;
16839;SDS011;8536;52.150;11.572;2023-02-15T03:47:52;40.37;;;24.47;;
16839;SDS011;8536;52.150;11.572;2023-02-15T03:50:31;39.93;;;24.90;;
16839;SDS011;8536;52.150;11.572;2023-02-15T03:53:18;39.17;;;23.47;;
16839;SDS011;8536;52.150;11.572;2023-02-15T03:55:48;37.73;;;22.80;;
16839;SDS011;8536;52.150;11.572;2023-02-15T03:58:15;36.07;;;23.23;;
16839;SDS011;8536;52.150;11.572;2023-02-15T04:01:04;39.93;;;24.13;;
16839;SDS011;8536;52.150;11.572;2023-02-15T04:03:55;36.90;;;23.70;;
16839;SDS011;8536;52.150;11.572;2023-02-15T04:06:24;34.67;;;21.30;;
16839;SDS011;8536;52.150;11.572;2023-02-15T04:08:51;38.07;;;21.83;;
16839;SDS011;8536;52.150;11.572;2023-02-15T04:11:36;36.67;;;22.53;;
16839;SDS011;8536;52.150;11.572;2023-02-15T04:14:02;36.80;;;22.77;;
16839;SDS011;8536;52.150;11.572;2023-02-15T04:16:49;35.03;;;22.20;;
16839;SDS011;8536;52.150;11.572;2023-02-15T04:19:16;34.73;;;21.33;;
16839;SDS011;8536;52.150;11.572;2023-02-15T04:22:01;37.17;;;23.47;;
16839;SDS011;8536;52.150;11.572;2023-02-15T04:24:46;35.60;;;22.93;;
16839;SDS011;8536;52.150;11.572;2023-02-15T04:27:31;35.93;;;22.80;;
16839;SDS011;8536;52.150;11.572;2023-02-15T04:29:57;35.97;;;22.63;;
16839;SDS011;8536;52.150;11.572;2023-02-15T04:32:24;36.07;;;22.90;;
16839;SDS011;8536;52.150;11.572;2023-02-15T04:34:50;37.27;;;23.63;;
16839;SDS011;8536;52.150;11.572;2023-02-15T04:37:17;36.97;;;23.30;;
16839;SDS011;8536;52.150;11.572;2023-02-15T04:39:44;40.27;;;24.37;;
16839;SDS011;8536;52.150;11.572;2023-02-15T04:42:10;38.43;;;24.00;;
16839;SDS011;8536;52.150;11.572;2023-02-15T04:44:37;39.07;;;23.17;;
16839;SDS011;8536;52.150;11.572;2023-02-15T04:47:03;36.23;;;24.37;;
16839;SDS011;8536;52.150;11.572;2023-02-15T04:49:30;36.60;;;23.40;;
16839;SDS011;8536;52.150;11.572;2023-02-15T04:51:56;38.77;;;24.07;;
16839;SDS011;8536;52.150;11.572;2023-02-15T04:54:23;43.53;;;25.30;;
16839;SDS011;8536;52.150;11.572;2023-02-15T04:56:50;40.83;;;23.83;;
16839;SDS011;8536;52.150;11.572;2023-02-15T04:59:16;43.80;;;25.50;;
16839;SDS011;8536;52.150;11.572;2023-02-15T05:01:43;47.03;;;26.93;;
16839;SDS011;8536;52.150;11.572;2023-02-15T05:04:09;42.17;;;25.70;;
16839;SDS011;8536;52.150;11.572;2023-02-15T05:06:36;46.93;;;26.13;;
16839;SDS011;8536;52.150;11.572;2023-02-15T05:09:03;44.23;;;25.83;;
16839;SDS011;8536;52.150;11.572;2023-02-15T05:11:29;44.47;;;26.33;;
16839;SDS011;8536;52.150;11.572;2023-02-15T05:13:56;47.13;;;26.30;;
16839;SDS011;8536;52.150;11.572;2023-02-15T05:16:22;46.33;;;26.13;;
16839;SDS011;8536;52.150;11.572;2023-02-15T05:18:49;44.60;;;26.00;;
16839;SDS011;8536;52.150;11.572;2023-02-15T05:21:16;47.20;;;27.37;;
16839;SDS011;8536;52.150;11.572;2023-02-15T05:23:43;43.93;;;25.70;;
16839;SDS011;8536;52.150;11.572;2023-02-15T05:26:14;41.63;;;25.20;;
16839;SDS011;8536;52.150;11.572;2023-02-15T05:29:02;44.73;;;24.90;;
16839;SDS011;8536;52.150;11.572;2023-02-15T05:31:30;43.87;;;24.63;;
16839;SDS011;8536;52.150;11.572;2023-02-15T05:33:57;41.43;;;24.43;;
16839;SDS011;8536;52.150;11.572;2023-02-15T05:36:24;45.77;;;26.93;;
16839;SDS011;8536;52.150;11.572;2023-02-15T05:38:50;48.10;;;26.33;;
16839;SDS011;8536;52.150;11.572;2023-02-15T05:41:17;43.07;;;25.67;;
16839;SDS011;8536;52.150;11.572;2023-02-15T05:43:44;46.80;;;26.63;;
16839;SDS011;8536;52.150;11.572;2023-02-15T05:46:11;46.13;;;26.03;;
16839;SDS011;8536;52.150;11.572;2023-02-15T05:48:38;48.67;;;27.27;;
16839;SDS011;8536;52.150;11.572;2023-02-15T05:53:33;49.10;;;27.57;;
16839;SDS011;8536;52.150;11.572;2023-02-15T05:56:02;45.00;;;26.50;;
16839;SDS011;8536;52.150;11.572;2023-02-15T05:58:30;50.10;;;27.33;;
16839;SDS011;8536;52.150;11.572;2023-02-15T06:00:59;42.17;;;25.87;;
16839;SDS011;8536;52.150;11.572;2023-02-15T06:03:25;40.90;;;24.67;;
16839;SDS011;8536;52.150;11.572;2023-02-15T06:05:54;37.97;;;24.97;;
16839;SDS011;8536;52.150;11.572;2023-02-15T06:08:21;36.33;;;23.77;;
16839;SDS011;8536;52.150;11.572;2023-02-15T06:10:47;39.47;;;26.23;;
16839;SDS011;8536;52.150;11.572;2023-02-15T06:13:14;40.10;;;25.07;;
16839;SDS011;8536;52.150;11.572;2023-02-15T06:15:41;40.03;;;25.67;;
16839;SDS011;8536;52.150;11.572;2023-02-15T06:18:07;36.90;;;24.70;;
16839;SDS011;8536;52.150;11.572;2023-02-15T06:20:34;38.43;;;24.20;;
16839;SDS011;8536;52.150;11.572;2023-02-15T06:23:00;37.50;;;23.77;;
16839;SDS011;8536;52.150;11.572;2023-02-15T06:25:27;39.67;;;24.30;;
16839;SDS011;8536;52.150;11.572;2023-02-15T06:27:53;39.57;;;25.87;;
16839;SDS011;8536;52.150;11.572;2023-02-15T06:30:20;37.27;;;24.07;;
16839;SDS011;8536;52.150;11.572;2023-02-15T06:32:47;35.83;;;23.17;;
16839;SDS011;8536;52.150;11.572;2023-02-15T06:35:13;37.43;;;22.87;;
16839;SDS011;8536;52.150;11.572;2023-02-15T06:37:40;37.97;;;24.57;;
16839;SDS011;8536;52.150;11.572;2023-02-15T06:40:07;43.60;;;25.63;;
16839;SDS011;8536;52.150;11.572;2023-02-15T06:42:34;39.70;;;24.03;;
16839;SDS011;8536;52.150;11.572;2023-02-15T06:45:01;40.67;;;24.97;;
16839;SDS011;8536;52.150;11.572;2023-02-15T06:47:27;40.50;;;24.17;;
16839;SDS011;8536;52.150;11.572;2023-02-15T06:49:54;40.40;;;24.97;;
16839;SDS011;8536;52.150;11.572;2023-02-15T06:52:20;40.10;;;24.63;;
16839;SDS011;8536;52.150;11.572;2023-02-15T06:54:47;38.23;;;24.27;;
16839;SDS011;8536;52.150;11.572;2023-02-15T06:57:14;36.27;;;23.43;;
16839;SDS011;8536;52.150;11.572;2023-02-15T06:59:41;36.00;;;23.77;;
16839;SDS011;8536;52.150;11.572;2023-02-15T07:02:08;38.43;;;24.90;;
16839;SDS011;8536;52.150;11.572;2023-02-15T07:04:37;37.90;;;23.60;;
16839;SDS011;8536;52.150;11.572;2023-02-15T07:07:03;31.97;;;22.10;;
16839;SDS011;8536;52.150;11.572;2023-02-15T07:09:30;30.70;;;20.73;;
16839;SDS011;8536;52.150;11.572;2023-02-15T07:11:57;30.83;;;20.30;;
16839;SDS011;8536;52.150;11.572;2023-02-15T07:14:46;29.07;;;21.27;;
16839;SDS011;8536;52.150;11.572;2023-02-15T07:17:13;31.97;;;21.97;;
16839;SDS011;8536;52.150;11.572;2023-02-15T07:19:59;31.60;;;21.63;;
16839;SDS011;8536;52.150;11.572;2023-02-15T07:22:26;32.60;;;21.80;;
16839;SDS011;8536;52.150;11.572;2023-02-15T07:24:53;34.40;;;22.77;;
16839;SDS011;8536;52.150;11.572;2023-02-15T07:27:20;30.07;;;21.97;;
16839;SDS011;8536;52.150;11.572;2023-02-15T07:29:47;34.77;;;23.20;;
16839;SDS011;8536;52.150;11.572;2023-02-15T07:32:14;28.47;;;19.80;;
16839;SDS011;8536;52.150;11.572;2023-02-15T07:34:40;27.27;;;19.87;;
16839;SDS011;8536;52.150;11.572;2023-02-15T07:37:07;23.37;;;17.00;;
16839;SDS011;8536;52.150;11.572;2023-02-15T07:39:34;21.90;;;16.67;;
16839;SDS011;8536;52.150;11.572;2023-02-15T07:42:00;23.23;;;16.33;;
16839;SDS011;8536;52.150;11.572;2023-02-15T07:44:27;22.27;;;16.30;;
16839;SDS011;8536;52.150;11.572;2023-02-15T07:46:54;22.63;;;16.23;;
16839;SDS011;8536;52.150;11.572;2023-02-15T07:49:20;21.60;;;16.10;;
16839;SDS011;8536;52.150;11.572;2023-02-15T07:51:47;21.80;;;15.57;;
16839;SDS011;8536;52.150;11.572;2023-02-15T07:54:13;21.33;;;16.20;;
16839;SDS011;8536;52.150;11.572;2023-02-15T07:56:40;20.63;;;14.70;;
16839;SDS011;8536;52.150;11.572;2023-02-15T07:59:07;21.97;;;15.47;;
16839;SDS011;8536;52.150;11.572;2023-02-15T08:01:35;23.67;;;16.50;;
16839;SDS011;8536;52.150;11.572;2023-02-15T08:04:03;22.37;;;16.50;;
16839;SDS011;8536;52.150;11.572;2023-02-15T08:06:32;22.27;;;15.60;;
16839;SDS011;8536;52.150;11.572;2023-02-15T08:09:02;20.47;;;16.07;;
16839;SDS011;8536;52.150;11.572;2023-02-15T08:11:31;20.17;;;15.47;;
16839;SDS011;8536;52.150;11.572;2023-02-15T08:16:38;20.80;;;16.03;;
16839;SDS011;8536;52.150;11.572;2023-02-15T08:19:14;19.80;;;14.77;;
16839;SDS011;8536;52.150;11.572;2023-02-15T08:21:42;20.70;;;15.27;;
16839;SDS011;8536;52.150;11.572;2023-02-15T08:24:13;20.77;;;15.03;;
16839;SDS011;8536;52.150;11.572;2023-02-15T08:26:41;21.37;;;16.30;;
16839;SDS011;8536;52.150;11.572;2023-02-15T08:29:08;19.97;;;15.33;;
16839;SDS011;8536;52.150;11.572;2023-02-15T08:31:35;19.73;;;15.27;;
16839;SDS011;8536;52.150;11.572;2023-02-15T08:34:04;19.50;;;15.10;;
16839;SDS011;8536;52.150;11.572;2023-02-15T08:36:31;20.87;;;14.60;;
16839;SDS011;8536;52.150;11.572;2023-02-15T08:38:59;21.60;;;15.37;;
16839;SDS011;8536;52.150;11.572;2023-02-15T08:41:29;16.80;;;14.60;;
16839;SDS011;8536;52.150;11.572;2023-02-15T08:43:58;16.87;;;14.23;;
16839;SDS011;8536;52.150;11.572;2023-02-15T08:46:28;20.20;;;14.83;;
16839;SDS011;8536;52.150;11.572;2023-02-15T08:48:57;18.73;;;13.93;;
16839;SDS011;8536;52.150;11.572;2023-02-15T08:51:27;20.03;;;14.67;;
16839;SDS011;8536;52.150;11.572;2023-02-15T08:53:58;20.03;;;15.27;;
16839;SDS011;8536;52.150;11.572;2023-02-15T08:56:27;20.77;;;15.63;;
16839;SDS011;8536;52.150;11.572;2023-02-15T08:58:55;20.07;;;15.20;;
16839;SDS011;8536;52.150;11.572;2023-02-15T09:01:23;19.87;;;15.07;;
16839;SDS011;8536;52.150;11.572;2023-02-15T09:03:56;22.00;;;15.60;;
16839;SDS011;8536;52.150;11.572;2023-02-15T09:06:31;19.60;;;14.83;;
16839;SDS011;8536;52.150;11.572;2023-02-15T09:09:02;21.03;;;15.07;;
16839;SDS011;8536;52.150;11.572;2023-02-15T09:11:32;18.50;;;14.03;;
16839;SDS011;8536;52.150;11.572;2023-02-15T09:14:08;18.40;;;13.70;;
16839;SDS011;8536;52.150;11.572;2023-02-15T09:16:37;19.10;;;13.83;;
16839;SDS011;8536;52.150;11.572;2023-02-15T09:19:04;16.20;;;13.20;;
16839;SDS011;8536;52.150;11.572;2023-02-15T09:21:32;18.90;;;13.67;;
16839;SDS011;8536;52.150;11.572;2023-02-15T09:24:00;18.90;;;13.97;;
16839;SDS011;8536;52.150;11.572;2023-02-15T09:26:29;17.93;;;13.93;;
16839;SDS011;8536;52.150;11.572;2023-02-15T09:28:58;17.90;;;14.07;;
16839;SDS011;8536;52.150;11.572;2023-02-15T09:31:28;20.47;;;14.20;;
16839;SDS011;8536;52.150;11.572;2023-02-15T09:33:56;18.27;;;12.90;;
16839;SDS011;8536;52.150;11.572;2023-02-15T09:36:25;18.83;;;15.50;;
16839;SDS011;8536;52.150;11.572;2023-02-15T09:38:57;18.53;;;14.40;;
16839;SDS011;8536;52.150;11.572;2023-02-15T09:41:38;22.03;;;16.13;;
16839;SDS011;8536;52.150;11.572;2023-02-15T09:44:26;25.53;;;18.40;;
16839;SDS011;8536;52.150;11.572;2023-02-15T10:09:10;23.97;;;15.53;;
16839;SDS011;8536;52.150;11.572;2023-02-15T10:11:50;28.33;;;18.03;;
16839;SDS011;8536;52.150;11.572;2023-02-15T10:14:52;34.20;;;19.53;;
16839;SDS011;8536;52.150;11.572;2023-02-15T10:17:38;33.57;;;21.00;;
16839;SDS011;8536;52.150;11.572;2023-02-15T10:20:16;35.60;;;21.47;;
16839;SDS011;8536;52.150;11.572;2023-02-15T10:22:57;36.47;;;21.13;;
16839;SDS011;8536;52.150;11.572;2023-02-15T10:28:50;39.40;;;20.77;;
16839;SDS011;8536;52.150;11.572;2023-02-15T10:31:28;34.10;;;21.03;;
16839;SDS011;8536;52.150;11.572;2023-02-15T10:34:20;33.90;;;21.27;;
16839;SDS011;8536;52.150;11.572;2023-02-15T10:37:13;38.07;;;21.77;;
16839;SDS011;8536;52.150;11.572;2023-02-15T10:39:56;35.83;;;21.50;;
16839;SDS011;8536;52.150;11.572;2023-02-15T10:45:28;42.60;;;25.10;;
16839;SDS011;8536;52.150;11.572;2023-02-15T10:50:30;36.80;;;22.73;;
16839;SDS011;8536;52.150;11.572;2023-02-15T10:56:03;34.93;;;22.53;;
16839;SDS011;8536;52.150;11.572;2023-02-15T11:01:38;21.20;;;17.20;;
16839;SDS011;8536;52.150;11.572;2023-02-15T11:06:55;21.67;;;15.57;;
16839;SDS011;8536;52.150;11.572;2023-02-15T11:09:24;20.57;;;16.00;;
16839;SDS011;8536;52.150;11.572;2023-02-15T11:11:57;21.67;;;16.97;;
16839;SDS011;8536;52.150;11.572;2023-02-15T11:17:19;21.20;;;17.13;;
16839;SDS011;8536;52.150;11.572;2023-02-15T11:22:15;19.73;;;16.53;;
16839;SDS011;8536;52.150;11.572;2023-02-15T11:24:43;18.83;;;15.10;;
16839;SDS011;8536;52.150;11.572;2023-02-15T11:29:48;18.97;;;14.87;;
16839;SDS011;8536;52.150;11.572;2023-02-15T11:32:39;18.00;;;14.27;;
16839;SDS011;8536;52.150;11.572;2023-02-15T11:35:18;17.03;;;13.83;;
16839;SDS011;8536;52.150;11.572;2023-02-15T11:40:32;18.03;;;14.27;;
16839;SDS011;8536;52.150;11.572;2023-02-15T11:43:02;17.13;;;13.77;;
16839;SDS011;8536;52.150;11.572;2023-02-15T11:45:42;18.07;;;13.83;;
16839;SDS011;8536;52.150;11.572;2023-02-15T11:48:11;18.37;;;13.93;;
16839;SDS011;8536;52.150;11.572;2023-02-15T11:50:39;16.57;;;13.63;;
16839;SDS011;8536;52.150;11.572;2023-02-15T11:53:16;16.60;;;13.83;;
16839;SDS011;8536;52.150;11.572;2023-02-15T11:55:45;16.33;;;13.50;;
16839;SDS011;8536;52.150;11.572;2023-02-15T12:03:51;15.63;;;11.57;;
16839;SDS011;8536;52.150;11.572;2023-02-15T12:06:21;16.17;;;12.70;;
16839;SDS011;8536;52.150;11.572;2023-02-15T12:08:51;14.70;;;11.80;;
16839;SDS011;8536;52.150;11.572;2023-02-15T12:11:25;16.20;;;12.43;;
16839;SDS011;8536;52.150;11.572;2023-02-15T12:13:56;15.60;;;13.60;;
16839;SDS011;8536;52.150;11.572;2023-02-15T12:16:24;15.93;;;12.83;;
16839;SDS011;8536;52.150;11.572;2023-02-15T12:18:53;14.60;;;12.23;;
16839;SDS011;8536;52.150;11.572;2023-02-15T12:21:28;16.60;;;13.70;;
16839;SDS011;8536;52.150;11.572;2023-02-15T12:24:09;18.40;;;13.20;;
16839;SDS011;8536;52.150;11.572;2023-02-15T12:26:44;17.13;;;13.17;;
16839;SDS011;8536;52.150;11.572;2023-02-15T12:29:22;18.17;;;13.13;;
16839;SDS011;8536;52.150;11.572;2023-02-15T12:31:53;17.40;;;13.80;;
16839;SDS011;8536;52.150;11.572;2023-02-15T12:34:29;16.03;;;14.10;;
16839;SDS011;8536;52.150;11.572;2023-02-15T12:37:00;17.07;;;14.37;;
16839;SDS011;8536;52.150;11.572;2023-02-15T12:39:32;18.47;;;14.70;;
16839;SDS011;8536;52.150;11.572;2023-02-15T12:42:00;17.97;;;14.43;;
16839;SDS011;8536;52.150;11.572;2023-02-15T12:44:31;16.67;;;13.57;;
16839;SDS011;8536;52.150;11.572;2023-02-15T12:47:03;17.87;;;13.93;;
16839;SDS011;8536;52.150;11.572;2023-02-15T12:49:31;18.10;;;13.80;;
16839;SDS011;8536;52.150;11.572;2023-02-15T12:52:00;16.87;;;13.20;;
16839;SDS011;8536;52.150;11.572;2023-02-15T12:57:12;17.50;;;14.20;;
16839;SDS011;8536;52.150;11.572;2023-02-15T12:59:50;21.03;;;15.10;;
16839;SDS011;8536;52.150;11.572;2023-02-15T13:02:25;18.40;;;14.63;;
16839;SDS011;8536;52.150;11.572;2023-02-15T13:04:54;18.93;;;15.20;;
16839;SDS011;8536;52.150;11.572;2023-02-15T13:07:23;18.90;;;14.70;;
16839;SDS011;8536;52.150;11.572;2023-02-15T13:09:51;18.13;;;13.77;;
16839;SDS011;8536;52.150;11.572;2023-02-15T13:14:49;19.07;;;15.43;;
16839;SDS011;8536;52.150;11.572;2023-02-15T13:17:19;20.67;;;15.70;;
16839;SDS011;8536;52.150;11.572;2023-02-15T13:20:05;21.27;;;16.13;;
16839;SDS011;8536;52.150;11.572;2023-02-15T13:22:43;20.63;;;15.30;;
16839;SDS011;8536;52.150;11.572;2023-02-15T13:25:17;20.87;;;15.50;;
16839;SDS011;8536;52.150;11.572;2023-02-15T13:27:46;19.53;;;15.40;;
16839;SDS011;8536;52.150;11.572;2023-02-15T13:30:28;17.07;;;14.43;;
16839;SDS011;8536;52.150;11.572;2023-02-15T13:33:00;17.63;;;13.83;;
16839;SDS011;8536;52.150;11.572;2023-02-15T13:35:32;15.60;;;12.60;;
16839;SDS011;8536;52.150;11.572;2023-02-15T13:40:53;14.50;;;11.80;;
16839;SDS011;8536;52.150;11.572;2023-02-15T13:46:39;14.18;;;10.85;;
16839;SDS011;8536;52.150;11.572;2023-02-15T13:49:14;13.15;;;10.23;;
16839;SDS011;8536;52.150;11.572;2023-02-15T13:52:06;11.23;;;9.87;;
16839;SDS011;8536;52.150;11.572;2023-02-15T14:11:12;10.97;;;8.93;;
16839;SDS011;8536;52.150;11.572;2023-02-15T14:14:11;11.50;;;9.07;;
16839;SDS011;8536;52.150;11.572;2023-02-15T14:19:50;9.02;;;7.88;;
16839;SDS011;8536;52.150;11.572;2023-02-15T14:22:35;9.18;;;8.02;;
16839;SDS011;8536;52.150;11.572;2023-02-15T14:25:19;9.40;;;7.87;;
16839;SDS011;8536;52.150;11.572;2023-02-15T14:30:40;9.85;;;7.60;;
16839;SDS011;8536;52.150;11.572;2023-02-15T14:33:24;8.20;;;7.40;;
16839;SDS011;8536;52.150;11.572;2023-02-15T14:36:01;9.38;;;7.75;;
16839;SDS011;8536;52.150;11.572;2023-02-15T14:41:31;10.30;;;8.68;;
16839;SDS011;8536;52.150;11.572;2023-02-15T14:44:09;11.43;;;9.13;;
16839;SDS011;8536;52.150;11.572;2023-02-15T14:46:51;12.63;;;10.18;;
16839;SDS011;8536;52.150;11.572;2023-02-15T14:51:54;12.55;;;9.63;;
16839;SDS011;8536;52.150;11.572;2023-02-15T14:59:45;13.40;;;11.35;;
16839;SDS011;8536;52.150;11.572;2023-02-15T15:02:20;12.05;;;10.32;;
16839;SDS011;8536;52.150;11.572;2023-02-15T15:07:48;11.73;;;10.30;;
16839;SDS011;8536;52.150;11.572;2023-02-15T15:15:12;12.45;;;10.20;;
16839;SDS011;8536;52.150;11.572;2023-02-15T15:17:52;10.73;;;9.07;;
16839;SDS011;8536;52.150;11.572;2023-02-15T15:20:39;11.38;;;9.45;;
16839;SDS011;8536;52.150;11.572;2023-02-15T15:25:48;13.02;;;10.55;;
16839;SDS011;8536;52.150;11.572;2023-02-15T15:31:00;13.70;;;10.95;;
16839;SDS011;8536;52.150;11.572;2023-02-15T15:33:35;12.57;;;10.70;;
16839;SDS011;8536;52.150;11.572;2023-02-15T15:41:41;11.88;;;9.93;;
16839;SDS011;8536;52.150;11.572;2023-02-15T15:44:24;11.93;;;10.68;;
16839;SDS011;8536;52.150;11.572;2023-02-15T15:50:21;13.00;;;10.50;;
16839;SDS011;8536;52.150;11.572;2023-02-15T15:52:51;14.50;;;11.23;;
16839;SDS011;8536;52.150;11.572;2023-02-15T15:55:23;12.63;;;10.60;;
16839;SDS011;8536;52.150;11.572;2023-02-15T15:57:52;15.13;;;11.68;;
16839;SDS011;8536;52.150;11.572;2023-02-15T16:02:57;19.98;;;14.35;;
16839;SDS011;8536;52.150;11.572;2023-02-15T16:05:24;18.77;;;14.27;;
16839;SDS011;8536;52.150;11.572;2023-02-15T16:07:51;18.38;;;12.95;;
16839;SDS011;8536;52.150;11.572;2023-02-15T16:10:23;18.42;;;14.00;;
16839;SDS011;8536;52.150;11.572;2023-02-15T16:12:54;23.77;;;15.45;;
16839;SDS011;8536;52.150;11.572;2023-02-15T16:15:24;19.38;;;15.05;;
16839;SDS011;8536;52.150;11.572;2023-02-15T16:17:57;25.40;;;17.23;;
16839;SDS011;8536;52.150;11.572;2023-02-15T16:20:26;26.13;;;16.90;;
16839;SDS011;8536;52.150;11.572;2023-02-15T16:23:09;25.08;;;16.77;;
16839;SDS011;8536;52.150;11.572;2023-02-15T16:26:05;26.90;;;18.15;;
16839;SDS011;8536;52.150;11.572;2023-02-15T16:28:39;27.77;;;18.02;;
16839;SDS011;8536;52.150;11.572;2023-02-15T16:31:07;29.00;;;19.27;;
16839;SDS011;8536;52.150;11.572;2023-02-15T16:33:38;32.77;;;22.97;;
16839;SDS011;8536;52.150;11.572;2023-02-15T16:36:06;32.87;;;21.67;;
16839;SDS011;8536;52.150;11.572;2023-02-15T16:41:27;32.63;;;22.50;;
16839;SDS011;8536;52.150;11.572;2023-02-15T16:43:56;34.10;;;22.23;;
16839;SDS011;8536;52.150;11.572;2023-02-15T16:46:25;32.40;;;21.77;;
16839;SDS011;8536;52.150;11.572;2023-02-15T16:48:54;33.37;;;22.50;;
16839;SDS011;8536;52.150;11.572;2023-02-15T16:51:27;33.33;;;23.63;;
16839;SDS011;8536;52.150;11.572;2023-02-15T16:53:55;31.73;;;22.03;;
16839;SDS011;8536;52.150;11.572;2023-02-15T16:56:23;31.63;;;21.77;;
16839;SDS011;8536;52.150;11.572;2023-02-15T16:58:54;31.33;;;22.07;;
16839;SDS011;8536;52.150;11.572;2023-02-15T17:01:22;32.90;;;22.17;;
16839;SDS011;8536;52.150;11.572;2023-02-15T17:07:02;35.47;;;23.37;;
16839;SDS011;8536;52.150;11.572;2023-02-15T17:09:33;41.23;;;25.17;;
16839;SDS011;8536;52.150;11.572;2023-02-15T17:11:59;39.50;;;26.47;;
16839;SDS011;8536;52.150;11.572;2023-02-15T17:14:29;38.00;;;24.37;;